createdAt,value
2022-10-22T00:00:08.943Z,2.50
2022-10-22T00:02:36.175Z,2.30
2022-10-22T00:05:03.452Z,2.30
2022-10-22T00:07:30.610Z,2.63
2022-10-22T00:09:57.723Z,2.65
2022-10-22T00:12:25.101Z,2.47
2022-10-22T00:14:52.253Z,2.80
2022-10-22T00:17:19.428Z,2.55
2022-10-22T00:19:46.567Z,2.38
2022-10-22T00:22:13.698Z,2.60
2022-10-22T00:24:41.195Z,2.25
2022-10-22T00:27:09.606Z,2.10
2022-10-22T00:29:36.898Z,2.50
2022-10-22T00:32:04.815Z,2.40
2022-10-22T00:34:31.992Z,2.35
2022-10-22T00:37:01.391Z,2.50
2022-10-22T00:39:28.647Z,2.60
2022-10-22T00:41:56.870Z,2.50
2022-10-22T00:44:42.401Z,2.40
2022-10-22T00:47:09.539Z,2.20
2022-10-22T00:49:36.755Z,2.40
2022-10-22T00:52:03.862Z,2.40
2022-10-22T00:54:31.035Z,2.40
2022-10-22T00:56:58.158Z,2.40
2022-10-22T00:59:25.291Z,2.40
2022-10-22T01:01:53.306Z,2.40
2022-10-22T01:04:20.940Z,2.30
2022-10-22T01:06:48.447Z,2.70
2022-10-22T01:09:15.597Z,2.55
2022-10-22T01:11:54.607Z,2.78
2022-10-22T01:14:34.073Z,2.20
2022-10-22T01:17:05.524Z,2.45
2022-10-22T01:19:51.237Z,2.50
2022-10-22T01:22:21.627Z,2.53
2022-10-22T01:25:06.507Z,2.60
2022-10-22T01:27:52.178Z,2.70
2022-10-22T01:30:19.432Z,2.22
2022-10-22T01:32:55.277Z,2.60
2022-10-22T01:35:30.079Z,2.35
2022-10-22T01:37:59.087Z,2.67
2022-10-22T01:40:27.674Z,2.75
2022-10-22T01:43:05.674Z,2.63
2022-10-22T01:45:37.803Z,2.42
2022-10-22T01:48:31.358Z,2.50
2022-10-22T01:51:21.513Z,2.80
2022-10-22T01:53:59.499Z,2.67
2022-10-22T01:56:41.006Z,2.85
2022-10-22T01:59:14.137Z,2.47
2022-10-22T02:01:55.142Z,2.50
2022-10-22T02:04:26.564Z,2.40
2022-10-22T02:06:55.569Z,2.17
2022-10-22T02:09:23.715Z,2.75
2022-10-22T02:11:51.301Z,2.60
2022-10-22T02:14:20.029Z,2.47
2022-10-22T02:16:49.034Z,2.70
2022-10-22T02:19:20.478Z,2.40
2022-10-22T02:21:47.654Z,2.33
2022-10-22T02:24:14.825Z,2.17
2022-10-22T02:26:53.510Z,2.28
2022-10-22T02:29:28.824Z,2.80
2022-10-22T02:31:57.142Z,2.47
2022-10-22T02:34:27.370Z,2.70
2022-10-22T02:36:55.099Z,2.60
2022-10-22T02:39:25.428Z,2.55
2022-10-22T02:41:52.562Z,2.40
2022-10-22T02:44:22.100Z,2.78
2022-10-22T02:46:49.315Z,2.40
2022-10-22T02:49:16.822Z,2.88
2022-10-22T02:51:43.956Z,2.40
2022-10-22T02:54:11.068Z,2.28
2022-10-22T02:56:38.209Z,2.60
2022-10-22T02:59:05.324Z,2.78
2022-10-22T03:01:32.422Z,2.70
2022-10-22T03:03:59.561Z,2.50
2022-10-22T03:06:26.716Z,2.72
2022-10-22T03:08:53.896Z,2.70
2022-10-22T03:11:21.039Z,2.40
2022-10-22T03:13:48.155Z,2.58
2022-10-22T03:16:15.246Z,2.55
2022-10-22T03:18:42.380Z,2.50
2022-10-22T03:21:09.473Z,2.50
2022-10-22T03:23:37.079Z,2.50
2022-10-22T03:26:04.504Z,2.40
2022-10-22T03:28:31.630Z,2.20
2022-10-22T03:30:58.746Z,2.45
2022-10-22T03:33:25.868Z,2.60
2022-10-22T03:35:53.020Z,2.10
2022-10-22T03:38:20.198Z,2.50
2022-10-22T03:40:47.518Z,2.75
2022-10-22T03:43:14.750Z,2.60
2022-10-22T03:45:41.846Z,2.60
2022-10-22T03:48:08.977Z,2.53
2022-10-22T03:50:36.097Z,2.53
2022-10-22T03:53:03.288Z,2.47
2022-10-22T03:55:30.454Z,2.67
2022-10-22T03:57:57.578Z,2.65
2022-10-22T04:00:24.722Z,2.58
2022-10-22T04:02:51.834Z,2.28
2022-10-22T04:05:18.948Z,2.70
2022-10-22T04:07:46.050Z,2.42
2022-10-22T04:10:13.225Z,2.72
2022-10-22T04:12:40.335Z,2.50
2022-10-22T04:15:08.163Z,2.38
2022-10-22T04:17:38.940Z,2.50
2022-10-22T04:20:06.558Z,2.47
2022-10-22T04:22:35.128Z,2.47
2022-10-22T04:25:02.650Z,2.55
2022-10-22T04:27:33.322Z,2.70
2022-10-22T04:30:00.431Z,2.35
2022-10-22T04:32:28.279Z,2.53
2022-10-22T04:34:55.391Z,2.28
2022-10-22T04:37:22.631Z,2.63
2022-10-22T04:39:49.807Z,2.60
2022-10-22T04:42:17.053Z,2.60
2022-10-22T04:44:44.204Z,2.63
2022-10-22T04:47:11.313Z,2.58
2022-10-22T04:49:38.438Z,2.63
2022-10-22T04:52:05.638Z,2.28
2022-10-22T04:54:33.252Z,2.47
2022-10-22T04:57:00.490Z,2.50
2022-10-22T04:59:27.611Z,2.55
2022-10-22T05:01:54.753Z,2.40
2022-10-22T05:04:21.865Z,2.63
2022-10-22T05:06:48.952Z,2.60
2022-10-22T05:09:18.173Z,2.35
2022-10-22T05:11:48.419Z,2.40
2022-10-22T05:14:20.285Z,2.45
2022-10-22T05:16:48.668Z,2.60
2022-10-22T05:19:24.362Z,2.25
2022-10-22T05:21:54.791Z,2.20
2022-10-22T05:24:22.017Z,2.53
2022-10-22T05:26:53.028Z,2.50
2022-10-22T05:29:20.395Z,2.33
2022-10-22T05:31:47.628Z,2.40
2022-10-22T05:34:14.974Z,2.20
2022-10-22T05:36:42.123Z,2.37
2022-10-22T05:39:09.422Z,2.50
2022-10-22T05:41:37.067Z,2.10
2022-10-22T05:44:04.695Z,2.65
2022-10-22T05:46:34.180Z,2.25
2022-10-22T05:49:02.512Z,2.35
2022-10-22T05:51:30.945Z,2.70
2022-10-22T05:54:02.414Z,2.40
2022-10-22T05:56:31.866Z,2.45
2022-10-22T05:58:59.057Z,2.28
2022-10-22T06:01:30.814Z,2.33
2022-10-22T06:03:59.050Z,2.47
2022-10-22T06:08:54.180Z,2.35
2022-10-22T06:13:48.498Z,2.33
2022-10-22T06:16:15.679Z,2.50
2022-10-22T06:18:43.258Z,2.50
2022-10-22T06:21:11.502Z,2.15
2022-10-22T06:26:06.497Z,2.30
2022-10-22T06:28:33.961Z,2.40
2022-10-22T06:31:01.791Z,2.25
2022-10-22T06:33:29.481Z,2.30
2022-10-22T06:35:56.668Z,2.30
2022-10-22T06:38:23.894Z,2.42
2022-10-22T06:40:51.010Z,2.13
2022-10-22T06:43:18.128Z,2.70
2022-10-22T06:45:45.280Z,2.47
2022-10-22T06:48:12.375Z,2.38
2022-10-22T06:50:39.542Z,2.40
2022-10-22T06:53:07.149Z,2.42
2022-10-22T06:55:36.174Z,1.80
2022-10-22T06:58:03.271Z,2.42
2022-10-22T07:00:30.450Z,2.50
2022-10-22T07:02:59.233Z,2.20
2022-10-22T07:05:27.071Z,2.33
2022-10-22T07:07:54.167Z,2.25
2022-10-22T07:10:21.307Z,2.55
2022-10-22T07:12:48.415Z,2.63
2022-10-22T07:15:18.068Z,2.33
2022-10-22T07:17:45.285Z,2.53
2022-10-22T07:20:12.713Z,2.60
2022-10-22T07:22:40.139Z,2.50
2022-10-22T07:25:07.642Z,2.40
2022-10-22T07:27:34.985Z,2.38
2022-10-22T07:30:02.098Z,2.30
2022-10-22T07:32:29.333Z,2.10
2022-10-22T07:34:56.467Z,2.13
2022-10-22T07:37:23.575Z,2.30
2022-10-22T07:39:50.730Z,2.40
2022-10-22T07:42:20.899Z,2.30
2022-10-22T07:44:48.050Z,2.25
2022-10-22T07:47:15.220Z,2.45
2022-10-22T07:49:42.315Z,2.20
2022-10-22T07:52:11.667Z,2.00
2022-10-22T07:54:38.781Z,2.25
2022-10-22T07:57:05.906Z,2.50
2022-10-22T07:59:33.018Z,2.40
2022-10-22T08:02:00.134Z,2.38
2022-10-22T08:04:27.248Z,2.10
2022-10-22T08:06:54.360Z,2.67
2022-10-22T08:09:21.473Z,2.20
2022-10-22T08:11:48.639Z,2.30
2022-10-22T08:14:15.735Z,2.30
2022-10-22T08:16:42.887Z,2.40
2022-10-22T08:19:09.987Z,2.38
2022-10-22T08:21:37.102Z,2.35
2022-10-22T08:24:04.309Z,2.60
2022-10-22T08:26:31.545Z,2.17
2022-10-22T08:28:58.949Z,2.42
2022-10-22T08:31:28.560Z,2.30
2022-10-22T08:33:56.200Z,2.53
2022-10-22T08:36:23.319Z,2.30
2022-10-22T08:38:50.440Z,2.10
2022-10-22T08:41:19.006Z,2.20
2022-10-22T08:44:15.457Z,2.08
2022-10-22T08:47:01.067Z,2.10
2022-10-22T08:49:29.802Z,2.42
2022-10-22T08:51:58.351Z,2.50
2022-10-22T08:54:38.567Z,2.20
2022-10-22T08:57:24.183Z,2.25
2022-10-22T08:59:56.732Z,2.30
2022-10-22T09:02:42.712Z,2.58
2022-10-22T09:05:34.227Z,2.05
2022-10-22T09:08:01.446Z,2.30
2022-10-22T09:10:34.666Z,2.25
2022-10-22T09:13:01.867Z,2.53
2022-10-22T09:15:31.331Z,2.10
2022-10-22T09:18:12.093Z,2.33
2022-10-22T09:20:42.291Z,2.15
2022-10-22T09:23:25.828Z,2.45
2022-10-22T09:25:53.478Z,2.30
2022-10-22T09:28:22.901Z,1.85
2022-10-22T09:30:50.207Z,2.33
2022-10-22T09:33:24.939Z,2.15
2022-10-22T09:35:56.311Z,2.00
2022-10-22T09:38:31.761Z,2.30
2022-10-22T09:40:59.729Z,2.15
2022-10-22T09:43:26.909Z,2.50
2022-10-22T09:45:58.409Z,2.10
2022-10-22T09:48:39.965Z,2.28
2022-10-22T09:51:12.571Z,2.20
2022-10-22T09:53:43.273Z,2.10
2022-10-22T09:56:17.348Z,2.00
2022-10-22T09:58:45.851Z,2.00
2022-10-22T10:01:25.250Z,2.20
2022-10-22T10:03:52.856Z,2.05
2022-10-22T10:06:21.407Z,2.45
2022-10-22T10:08:49.055Z,2.22
2022-10-22T10:11:29.453Z,2.25
2022-10-22T10:13:59.710Z,2.30
2022-10-22T10:16:29.628Z,2.50
2022-10-22T10:19:02.565Z,2.50
2022-10-22T10:21:44.828Z,2.30
2022-10-22T10:24:23.756Z,1.95
2022-10-22T10:26:51.302Z,2.15
2022-10-22T10:29:40.133Z,2.30
2022-10-22T10:32:07.264Z,2.58
2022-10-22T10:34:58.068Z,2.38
2022-10-22T10:37:39.624Z,2.15
2022-10-22T10:40:26.067Z,2.22
2022-10-22T10:42:59.364Z,2.05
2022-10-22T10:45:44.945Z,2.25
2022-10-22T10:48:22.222Z,2.40
2022-10-22T10:50:52.220Z,2.30
2022-10-22T10:53:25.444Z,2.40
2022-10-22T10:56:00.760Z,2.42
2022-10-22T10:58:33.924Z,2.38
2022-10-22T11:01:09.874Z,2.25
2022-10-22T11:03:56.168Z,2.25
2022-10-22T11:06:25.626Z,2.15
2022-10-22T11:08:58.429Z,2.72
2022-10-22T11:11:46.001Z,2.25
2022-10-22T11:14:27.811Z,2.15
2022-10-22T11:17:01.647Z,2.40
2022-10-22T11:19:51.684Z,2.22
2022-10-22T11:22:36.709Z,2.33
2022-10-22T11:25:06.618Z,2.20
2022-10-22T11:27:37.390Z,2.67
2022-10-22T11:30:06.539Z,2.40
2022-10-22T11:32:34.094Z,2.60
2022-10-22T11:35:03.367Z,2.50
2022-10-22T11:37:35.548Z,2.70
2022-10-22T11:40:15.210Z,2.20
2022-10-22T11:42:46.650Z,2.28
2022-10-22T11:45:16.836Z,2.35
2022-10-22T11:47:59.109Z,2.25
2022-10-22T11:50:27.474Z,2.28
2022-10-22T11:53:06.036Z,2.40
2022-10-22T11:55:45.939Z,2.38
2022-10-22T11:58:32.138Z,2.20
2022-10-22T12:00:59.254Z,2.42
2022-10-22T12:03:29.163Z,2.30
2022-10-22T12:06:12.021Z,2.53
2022-10-22T12:08:48.114Z,2.08
2022-10-22T12:11:15.262Z,2.33
2022-10-22T12:13:52.496Z,2.53
2022-10-22T12:16:32.093Z,2.47
2022-10-22T12:19:14.056Z,2.40
2022-10-22T12:21:45.150Z,2.55
2022-10-22T12:24:17.542Z,2.38
2022-10-22T12:26:46.130Z,2.10
2022-10-22T12:29:14.635Z,2.70
2022-10-22T12:31:44.243Z,2.30
2022-10-22T12:34:15.299Z,2.50
2022-10-22T12:36:42.512Z,2.50
2022-10-22T12:39:17.565Z,2.47
2022-10-22T12:41:45.144Z,2.28
2022-10-22T12:44:16.463Z,2.42
2022-10-22T12:46:44.668Z,2.60
2022-10-22T12:51:39.380Z,2.20
2022-10-22T12:54:23.361Z,2.53
2022-10-22T12:56:50.643Z,2.35
2022-10-22T12:59:23.623Z,2.60
2022-10-22T13:01:51.744Z,2.38
2022-10-22T13:04:22.095Z,2.50
2022-10-22T13:06:50.733Z,2.60
2022-10-22T13:09:23.878Z,2.50
2022-10-22T13:11:58.079Z,2.40
2022-10-22T13:14:32.959Z,2.55
2022-10-22T13:17:16.543Z,2.80
2022-10-22T13:19:45.472Z,2.50
2022-10-22T13:22:26.170Z,2.30
2022-10-22T13:24:53.399Z,2.50
2022-10-22T13:27:20.822Z,2.20
2022-10-22T13:29:48.328Z,2.33
2022-10-22T13:32:34.397Z,2.55
2022-10-22T13:35:04.822Z,2.45
2022-10-22T13:37:34.311Z,2.42
2022-10-22T13:40:01.488Z,2.60
2022-10-22T13:42:28.650Z,2.30
2022-10-22T13:44:55.751Z,2.45
2022-10-22T13:47:22.869Z,2.38
2022-10-22T13:49:50.006Z,2.40
2022-10-22T13:52:23.256Z,2.53
2022-10-22T13:54:50.383Z,2.80
2022-10-22T13:57:17.938Z,2.85
2022-10-22T13:59:45.036Z,2.38
2022-10-22T14:02:12.963Z,2.53
2022-10-22T14:04:41.244Z,2.50
2022-10-22T14:07:13.282Z,2.78
2022-10-22T14:09:40.409Z,2.70
2022-10-22T14:12:14.566Z,2.70
2022-10-22T14:14:41.720Z,2.60
2022-10-22T14:17:16.668Z,2.63
2022-10-22T14:19:45.154Z,2.53
2022-10-22T14:22:14.778Z,2.70
2022-10-22T14:24:41.902Z,2.55
2022-10-22T14:27:10.219Z,2.58
2022-10-22T14:29:37.379Z,2.60
2022-10-22T14:32:04.648Z,2.60
2022-10-22T14:34:31.748Z,2.58
2022-10-22T14:36:58.875Z,2.72
2022-10-22T14:39:25.982Z,2.35
2022-10-22T14:41:53.110Z,2.55
2022-10-22T14:44:21.817Z,2.38
2022-10-22T14:46:48.931Z,2.30
2022-10-22T14:49:16.108Z,2.45
2022-10-22T14:51:43.264Z,2.60
2022-10-22T14:54:10.401Z,2.70
2022-10-22T14:59:09.980Z,2.70
2022-10-22T15:01:38.840Z,2.47
2022-10-22T15:04:06.001Z,2.53
2022-10-22T15:06:33.197Z,2.30
2022-10-22T15:09:00.813Z,2.67
2022-10-22T15:11:28.384Z,2.63
2022-10-22T15:13:55.497Z,2.67
2022-10-22T15:16:22.603Z,2.60
2022-10-22T15:18:49.719Z,2.80
2022-10-22T15:21:19.949Z,2.40
2022-10-22T15:23:47.535Z,2.65
2022-10-22T15:26:15.289Z,2.50
2022-10-22T15:28:42.839Z,2.80
2022-10-22T15:31:12.789Z,2.50
2022-10-22T15:33:41.532Z,2.63
2022-10-22T15:36:13.338Z,2.45
2022-10-22T15:38:40.652Z,2.85
2022-10-22T15:41:10.098Z,2.50
2022-10-22T15:43:37.520Z,2.65
2022-10-22T15:46:14.193Z,2.50
2022-10-22T15:48:41.756Z,2.40
2022-10-22T15:51:09.822Z,2.75
2022-10-22T15:56:04.138Z,2.47
2022-10-22T15:58:31.471Z,2.50
2022-10-22T16:01:08.436Z,2.57
2022-10-22T16:03:35.660Z,2.38
2022-10-22T16:06:03.076Z,2.53
2022-10-22T16:08:30.221Z,2.20
2022-10-22T16:10:58.501Z,2.30
2022-10-22T16:13:26.453Z,2.47
2022-10-22T16:15:53.795Z,2.58
2022-10-22T16:18:21.641Z,2.50
2022-10-22T16:20:48.808Z,2.45
2022-10-22T16:23:18.826Z,2.90
2022-10-22T16:25:46.674Z,2.60
2022-10-22T16:28:14.323Z,2.35
2022-10-22T16:30:41.776Z,2.65
2022-10-22T16:33:09.498Z,2.47
2022-10-22T16:35:40.554Z,2.60
2022-10-22T16:38:07.769Z,2.60
2022-10-22T16:40:34.892Z,2.65
2022-10-22T16:43:02.092Z,2.40
2022-10-22T16:45:29.202Z,2.37
2022-10-22T16:47:56.334Z,2.75
2022-10-22T16:50:23.439Z,2.40
2022-10-22T16:52:50.756Z,2.60
2022-10-22T16:55:18.052Z,2.30
2022-10-22T16:57:50.594Z,2.43
2022-10-22T17:00:18.295Z,2.40
2022-10-22T17:02:45.403Z,2.50
2022-10-22T17:05:12.571Z,2.40
2022-10-22T17:07:39.705Z,2.53
2022-10-22T17:10:08.968Z,2.72
2022-10-22T17:12:38.742Z,2.58
2022-10-22T17:15:06.502Z,2.30
2022-10-22T17:17:33.771Z,2.67
2022-10-22T17:20:00.923Z,2.20
2022-10-22T17:22:28.042Z,2.60
2022-10-22T17:25:13.452Z,2.58
2022-10-22T17:27:41.402Z,2.40
2022-10-22T17:32:39.629Z,2.42
2022-10-22T17:35:07.653Z,2.55
2022-10-22T17:37:35.375Z,2.63
2022-10-22T17:40:02.972Z,2.20
2022-10-22T17:42:30.258Z,2.85
2022-10-22T17:44:57.922Z,2.70
2022-10-22T17:47:25.041Z,2.60
2022-10-22T17:49:52.209Z,2.55
2022-10-22T17:52:19.338Z,2.35
2022-10-22T17:54:48.704Z,2.13
2022-10-22T17:57:18.130Z,2.50
2022-10-22T17:59:45.245Z,2.50
2022-10-22T18:02:16.507Z,2.40
2022-10-22T18:04:45.039Z,2.75
2022-10-22T18:07:13.382Z,2.60
2022-10-22T18:09:40.575Z,2.60
2022-10-22T18:12:07.970Z,2.40
2022-10-22T18:14:35.135Z,2.30
2022-10-22T18:17:03.031Z,2.65
2022-10-22T18:19:30.538Z,2.33
2022-10-22T18:21:57.718Z,2.28
2022-10-22T18:24:24.885Z,2.45
2022-10-22T18:26:52.435Z,2.65
2022-10-22T18:29:20.649Z,2.53
2022-10-22T18:34:16.607Z,2.40
2022-10-22T18:36:46.218Z,2.50
2022-10-22T18:39:15.059Z,2.72
2022-10-22T18:41:43.210Z,2.42
2022-10-22T18:46:39.532Z,2.25
2022-10-22T18:49:07.281Z,2.67
2022-10-22T18:51:35.359Z,2.70
2022-10-22T18:54:22.038Z,2.40
2022-10-22T18:56:50.115Z,2.65
2022-10-22T18:59:24.446Z,2.65
2022-10-22T19:01:55.299Z,2.80
2022-10-22T19:04:22.622Z,2.60
2022-10-22T19:06:49.958Z,2.40
2022-10-22T19:09:17.507Z,2.10
2022-10-22T19:11:45.747Z,2.72
2022-10-22T19:16:42.186Z,2.42
2022-10-22T19:19:09.330Z,2.47
2022-10-22T19:21:37.283Z,2.55
2022-10-22T19:24:04.582Z,2.60
2022-10-22T19:26:32.022Z,2.90
2022-10-22T19:28:59.628Z,2.83
2022-10-22T19:31:28.646Z,2.30
2022-10-22T19:33:55.821Z,2.72
2022-10-22T19:36:24.404Z,2.50
2022-10-22T19:38:51.637Z,2.63
2022-10-22T19:41:20.140Z,2.90
2022-10-22T19:43:49.239Z,2.70
2022-10-22T19:46:16.712Z,2.35
2022-10-22T19:51:17.893Z,2.70
2022-10-22T19:53:45.088Z,2.63
2022-10-22T19:56:12.828Z,2.50
2022-10-22T19:58:39.971Z,2.50
2022-10-22T20:01:08.351Z,2.78
2022-10-22T20:03:36.391Z,3.00
2022-10-22T20:06:06.320Z,2.60
2022-10-22T20:08:37.966Z,2.67
2022-10-22T20:11:12.743Z,2.80
2022-10-22T20:16:12.228Z,2.90
2022-10-22T20:18:39.351Z,3.10
2022-10-22T20:21:07.117Z,2.63
2022-10-22T20:23:34.737Z,2.80
2022-10-22T20:26:01.880Z,2.85
2022-10-22T20:28:28.993Z,2.95
2022-10-22T20:30:56.113Z,3.00
2022-10-22T20:33:23.273Z,2.90
2022-10-22T20:36:05.154Z,3.10
2022-10-22T20:38:32.389Z,2.60
2022-10-22T20:41:00.750Z,3.00
2022-10-22T20:43:27.938Z,3.00
2022-10-22T20:45:55.105Z,3.00
2022-10-22T20:48:24.378Z,2.88
2022-10-22T20:50:51.491Z,2.80
2022-10-22T20:53:18.595Z,3.13
2022-10-22T20:55:45.782Z,2.78
2022-10-22T20:58:12.928Z,2.90
2022-10-22T21:00:40.061Z,3.08
2022-10-22T21:03:07.390Z,3.40
2022-10-22T21:05:34.755Z,3.27
2022-10-22T21:08:05.184Z,3.22
2022-10-22T21:10:33.074Z,3.28
2022-10-22T21:13:00.688Z,3.40
2022-10-22T21:15:28.377Z,3.00
2022-10-22T21:17:55.623Z,3.65
2022-10-22T21:20:24.760Z,3.37
2022-10-22T21:22:52.188Z,3.20
2022-10-22T21:25:19.327Z,3.17
2022-10-22T21:27:46.441Z,3.30
2022-10-22T21:30:13.795Z,3.00
2022-10-22T21:32:41.325Z,3.13
2022-10-22T21:35:08.771Z,3.50
2022-10-22T21:37:35.957Z,3.50
2022-10-22T21:40:04.342Z,3.05
2022-10-22T21:42:31.516Z,3.10
2022-10-22T21:44:59.138Z,2.83
2022-10-22T21:47:26.320Z,3.35
2022-10-22T21:49:53.855Z,3.40
2022-10-22T21:52:20.971Z,3.40
2022-10-22T21:54:48.557Z,3.30
2022-10-22T21:57:17.919Z,2.97
2022-10-22T21:59:45.038Z,3.58
2022-10-22T22:02:12.197Z,3.55
2022-10-22T22:04:40.131Z,3.30
2022-10-22T22:07:07.243Z,3.47
2022-10-22T22:09:34.365Z,3.33
2022-10-22T22:12:01.526Z,3.30
2022-10-22T22:14:29.084Z,3.22
2022-10-22T22:16:56.190Z,3.38
2022-10-22T22:19:23.286Z,3.30
2022-10-22T22:21:52.344Z,3.30
2022-10-22T22:24:22.163Z,3.67
2022-10-22T22:26:49.242Z,3.28
2022-10-22T22:29:16.406Z,3.60
2022-10-22T22:31:43.583Z,3.50
2022-10-22T22:34:32.393Z,3.70
2022-10-22T22:36:59.518Z,3.33
2022-10-22T22:39:26.635Z,3.30
2022-10-22T22:41:53.878Z,3.22
2022-10-22T22:44:20.986Z,3.45
2022-10-22T22:46:48.139Z,3.85
2022-10-22T22:49:15.325Z,3.42
2022-10-22T22:51:43.465Z,3.65
2022-10-22T22:54:11.361Z,3.88
2022-10-22T22:56:38.916Z,3.58
2022-10-22T22:59:06.533Z,3.88
2022-10-22T23:01:34.944Z,3.55
2022-10-22T23:04:06.757Z,3.80
2022-10-22T23:06:37.645Z,3.33
2022-10-22T23:09:05.762Z,3.70
2022-10-22T23:14:01.057Z,3.38
2022-10-22T23:18:55.834Z,3.50
2022-10-22T23:21:24.534Z,4.00
2022-10-22T23:24:02.031Z,4.03
2022-10-22T23:26:30.480Z,3.80
2022-10-22T23:29:24.007Z,3.90
2022-10-22T23:31:51.679Z,3.80
2022-10-22T23:34:23.716Z,3.65
2022-10-22T23:36:50.908Z,3.63
2022-10-22T23:39:20.504Z,3.60
2022-10-22T23:41:47.933Z,3.90
2022-10-22T23:44:15.099Z,3.72
2022-10-22T23:46:42.491Z,3.75
2022-10-22T23:49:10.130Z,3.63
2022-10-22T23:51:37.837Z,3.85
2022-10-22T23:54:06.084Z,3.95
2022-10-22T23:56:34.033Z,3.70
2022-10-22T23:59:01.205Z,3.38
